Time;durP1;ratioP1;P1;durP2;ratioP2;P2;SDS_P1;SDS_P2;PMS_P1;PMS_P2;Temp;Humidity;BMP_temperature;BMP_pressure;BME280_temperature;BME280_humidity;BME280_pressure;Samples;Min_cycle;Max_cycle;Signal;HPM_P1;HPM_P2
2022/10/28 00:01:26;;;;;;;10.50;2.90;;;14.60;99.90;;;;;;6177378;28;20520;-83
2022/10/28 00:04:27;;;;;;;8.43;3.28;;;14.60;99.90;;;;;;6177914;28;20053;-83
2022/10/28 00:07:29;;;;;;;9.10;2.85;;;14.50;99.90;;;;;;6177383;28;20055;-82
2022/10/28 00:10:32;;;;;;;11.10;3.35;;;14.40;99.90;;;;;;6177824;28;20058;-83
2022/10/28 00:13:34;;;;;;;17.88;3.83;;;14.40;99.90;;;;;;6177283;28;20051;-83
2022/10/28 00:16:37;;;;;;;10.68;4.00;;;14.30;99.90;;;;;;6176780;28;20052;-83
2022/10/28 00:19:38;;;;;;;6.55;2.90;;;14.30;99.90;;;;;;6176997;28;20050;-82
2022/10/28 00:22:40;;;;;;;12.25;2.92;;;14.10;99.90;;;;;;6177876;28;20066;-83
2022/10/28 00:25:43;;;;;;;13.40;2.95;;;14.10;99.90;;;;;;6177086;28;20054;-83
2022/10/28 00:28:48;;;;;;;11.88;3.55;;;14.00;99.90;;;;;;6176741;28;20046;-82
2022/10/28 00:31:51;;;;;;;14.10;3.97;;;14.10;99.90;;;;;;6175299;28;20054;-83
2022/10/28 00:34:53;;;;;;;11.68;4.35;;;14.10;99.90;;;;;;6177446;28;20047;-83
2022/10/28 00:37:54;;;;;;;8.70;2.90;;;14.20;99.90;;;;;;6176045;28;20069;-84
2022/10/28 00:40:57;;;;;;;15.00;3.33;;;14.30;99.90;;;;;;6176938;28;20051;-83
2022/10/28 00:44:02;;;;;;;8.40;2.83;;;14.40;99.90;;;;;;6176374;28;20051;-83
2022/10/28 00:47:10;;;;;;;9.95;3.00;;;14.40;99.90;;;;;;6176934;28;20050;-83
2022/10/28 00:50:19;;;;;;;5.55;3.05;;;14.50;99.90;;;;;;6176970;28;20047;-82
2022/10/28 00:53:23;;;;;;;6.97;2.50;;;14.60;99.90;;;;;;6177181;28;20047;-83
2022/10/28 00:56:30;;;;;;;15.73;2.70;;;14.60;99.90;;;;;;6176893;28;20042;-83
2022/10/28 00:59:35;;;;;;;7.03;3.77;;;14.70;99.90;;;;;;6176669;28;20058;-82
2022/10/28 01:02:44;;;;;;;10.18;3.08;;;14.60;99.90;;;;;;6175978;28;20313;-83
2022/10/28 01:05:48;;;;;;;7.38;3.00;;;14.60;99.90;;;;;;6176029;28;20039;-84
2022/10/28 01:08:49;;;;;;;11.77;2.92;;;14.60;99.90;;;;;;6175670;28;20062;-83
2022/10/28 01:12:00;;;;;;;8.90;3.15;;;14.60;99.90;;;;;;6176454;28;20053;-81
2022/10/28 01:15:09;;;;;;;8.38;2.88;;;14.70;99.90;;;;;;6176465;28;20055;-83
2022/10/28 01:18:21;;;;;;;6.88;2.42;;;14.70;99.90;;;;;;6175493;28;20413;-83
2022/10/28 01:22:00;;;;;;;6.72;2.50;;;14.80;99.90;;;;;;6175692;28;20046;-81
2022/10/28 01:25:29;;;;;;;9.40;3.40;;;14.90;99.90;;;;;;6165141;28;20047;-83
2022/10/28 01:28:51;;;;;;;6.55;3.28;;;15.00;99.90;;;;;;6175390;28;20046;-83
2022/10/28 01:31:57;;;;;;;12.50;2.90;;;15.10;99.90;;;;;;6175434;28;20049;-83
2022/10/28 01:35:06;;;;;;;9.73;3.45;;;15.20;99.90;;;;;;6175834;28;20046;-83
2022/10/28 01:38:28;;;;;;;4.80;2.33;;;15.30;99.90;;;;;;6175440;28;20059;-83
2022/10/28 01:41:33;;;;;;;5.97;2.63;;;15.30;99.90;;;;;;6175163;28;20055;-83
2022/10/28 01:44:43;;;;;;;8.50;2.67;;;15.30;99.90;;;;;;6176009;28;20408;-84
2022/10/28 01:47:52;;;;;;;6.20;2.88;;;15.30;99.90;;;;;;6181770;28;20047;-83
2022/10/28 01:50:59;;;;;;;11.88;2.70;;;15.30;99.90;;;;;;6183071;28;20071;-84
2022/10/28 01:54:06;;;;;;;11.32;2.60;;;15.40;99.90;;;;;;6182099;28;20043;-83
2022/10/28 01:57:09;;;;;;;8.05;3.78;;;15.40;99.90;;;;;;6180585;28;20051;-83
2022/10/28 02:00:12;;;;;;;14.50;4.38;;;15.40;99.90;;;;;;6182184;28;20046;-83
2022/10/28 02:03:16;;;;;;;11.05;2.70;;;15.40;99.90;;;;;;6182742;28;20058;-84
2022/10/28 02:06:21;;;;;;;7.38;3.28;;;15.30;99.90;;;;;;6182460;28;20038;-83
2022/10/28 02:09:39;;;;;;;8.02;2.50;;;15.20;99.90;;;;;;6183060;28;20369;-84
2022/10/28 02:12:41;;;;;;;5.32;2.95;;;15.10;99.90;;;;;;6183877;28;20055;-83
2022/10/28 02:15:49;;;;;;;9.52;3.70;;;15.10;99.90;;;;;;6184481;28;20050;-83
2022/10/28 02:19:01;;;;;;;9.18;2.80;;;15.10;99.90;;;;;;6186446;28;20047;-83
2022/10/28 02:22:18;;;;;;;9.25;2.42;;;15.10;99.90;;;;;;6186022;28;20531;-83
2022/10/28 02:25:23;;;;;;;12.40;2.75;;;15.10;99.90;;;;;;6179196;28;20054;-83
2022/10/28 02:28:32;;;;;;;6.32;2.40;;;15.10;99.90;;;;;;6179046;28;20043;-83
2022/10/28 02:31:37;;;;;;;10.88;2.97;;;15.00;99.90;;;;;;6178865;28;20428;-83
2022/10/28 02:34:43;;;;;;;10.57;3.05;;;15.10;99.90;;;;;;6178880;28;20050;-83
2022/10/28 02:37:47;;;;;;;8.02;2.20;;;15.10;99.90;;;;;;6178197;28;20085;-83
2022/10/28 02:40:53;;;;;;;19.95;4.20;;;15.20;99.90;;;;;;6179235;28;20042;-83
2022/10/28 02:44:06;;;;;;;10.82;3.40;;;15.10;99.90;;;;;;6178310;28;20053;-83
2022/10/28 02:47:15;;;;;;;8.15;3.63;;;15.20;99.90;;;;;;6178485;28;20058;-83
2022/10/28 02:50:24;;;;;;;7.88;2.83;;;15.10;99.90;;;;;;6177726;28;20058;-83
2022/10/28 02:53:32;;;;;;;9.63;2.58;;;15.00;99.90;;;;;;6176154;28;20051;-83
2022/10/28 02:56:39;;;;;;;6.03;2.45;;;14.90;99.90;;;;;;6173673;28;20047;-83
2022/10/28 02:59:41;;;;;;;7.40;2.20;;;14.90;99.90;;;;;;6173275;28;20054;-83
2022/10/28 03:02:42;;;;;;;8.88;2.55;;;14.90;99.90;;;;;;6174406;28;20105;-83
2022/10/28 03:05:46;;;;;;;9.95;2.33;;;14.80;99.90;;;;;;6173716;28;20421;-83
2022/10/28 03:08:47;;;;;;;9.85;3.80;;;14.80;99.90;;;;;;6173518;28;20437;-83
2022/10/28 03:11:49;;;;;;;14.23;3.35;;;14.70;99.90;;;;;;6175249;28;20046;-83
2022/10/28 03:14:50;;;;;;;9.57;3.05;;;14.70;99.90;;;;;;6174619;28;20062;-83
2022/10/28 03:17:52;;;;;;;6.63;1.98;;;14.70;99.90;;;;;;6174490;28;20059;-83
2022/10/28 03:20:55;;;;;;;10.70;4.03;;;14.70;99.90;;;;;;6174592;28;20459;-82
2022/10/28 03:23:57;;;;;;;5.78;2.05;;;14.70;99.90;;;;;;6174570;28;20050;-83
2022/10/28 03:26:58;;;;;;;5.70;1.98;;;14.70;99.90;;;;;;6179325;28;20049;-83
2022/10/28 03:30:00;;;;;;;7.10;2.08;;;14.70;99.90;;;;;;6178853;28;20063;-83
2022/10/28 03:33:02;;;;;;;12.25;3.85;;;14.70;99.90;;;;;;6178955;28;20047;-83
2022/10/28 03:36:05;;;;;;;9.40;2.70;;;14.70;99.90;;;;;;6178804;28;20065;-84
2022/10/28 03:39:07;;;;;;;11.82;3.00;;;14.60;99.90;;;;;;6178975;28;20051;-83
2022/10/28 03:42:09;;;;;;;13.15;2.75;;;14.70;99.90;;;;;;6178954;28;20051;-84
2022/10/28 03:45:11;;;;;;;8.48;2.83;;;14.60;99.90;;;;;;6178680;28;20050;-83
2022/10/28 03:48:13;;;;;;;9.43;3.72;;;14.70;99.90;;;;;;6179935;28;20057;-84
2022/10/28 03:51:16;;;;;;;5.30;1.80;;;14.80;99.90;;;;;;6179443;28;20047;-83
2022/10/28 03:54:17;;;;;;;13.68;3.30;;;14.90;99.90;;;;;;6179240;28;20046;-83
2022/10/28 03:57:19;;;;;;;12.13;3.47;;;15.00;99.90;;;;;;6178225;28;20553;-83
2022/10/28 04:00:21;;;;;;;9.15;2.40;;;15.10;99.90;;;;;;6178573;28;20416;-83
2022/10/28 04:03:25;;;;;;;20.25;4.90;;;15.10;99.90;;;;;;6179421;28;20055;-83
2022/10/28 04:06:28;;;;;;;7.60;2.45;;;15.00;99.90;;;;;;6179437;28;20058;-83
2022/10/28 04:09:30;;;;;;;12.43;2.58;;;14.90;99.90;;;;;;6178274;28;20058;-83
2022/10/28 04:12:31;;;;;;;10.40;2.97;;;14.80;99.90;;;;;;6179230;28;20054;-83
2022/10/28 04:15:34;;;;;;;16.65;5.22;;;14.70;99.90;;;;;;6179278;28;20051;-83
2022/10/28 04:18:35;;;;;;;4.82;2.72;;;14.50;99.90;;;;;;6179626;28;20051;-83
2022/10/28 04:21:38;;;;;;;9.63;2.60;;;14.40;99.90;;;;;;6180463;28;20054;-83
2022/10/28 04:24:40;;;;;;;9.40;2.90;;;14.40;99.90;;;;;;6180534;28;20426;-83
2022/10/28 04:27:44;;;;;;;7.07;2.85;;;14.40;99.90;;;;;;6179609;28;20493;-83
2022/10/28 04:30:47;;;;;;;14.50;3.22;;;14.40;99.90;;;;;;6181121;28;20107;-83
2022/10/28 04:33:49;;;;;;;15.43;2.80;;;14.50;99.90;;;;;;6180905;28;20047;-83
2022/10/28 04:36:52;;;;;;;13.35;3.55;;;14.50;99.90;;;;;;6180214;28;20051;-83
2022/10/28 04:39:53;;;;;;;10.05;3.00;;;14.40;99.90;;;;;;6180892;28;20436;-83
2022/10/28 04:42:55;;;;;;;13.25;3.47;;;14.40;99.90;;;;;;6182383;28;20656;-83
2022/10/28 04:45:57;;;;;;;11.80;2.45;;;14.40;99.90;;;;;;6180425;28;20105;-84
2022/10/28 04:48:58;;;;;;;13.27;2.63;;;14.40;99.90;;;;;;6180807;28;20057;-83
2022/10/28 04:52:01;;;;;;;6.68;3.47;;;14.30;99.90;;;;;;6180543;28;20043;-83
2022/10/28 04:55:03;;;;;;;11.45;2.78;;;14.30;99.90;;;;;;6181350;28;20054;-83
2022/10/28 04:58:05;;;;;;;12.02;3.30;;;14.30;99.90;;;;;;6180432;28;20477;-83
2022/10/28 05:01:08;;;;;;;16.02;3.15;;;14.30;99.90;;;;;;6181310;28;20057;-83
2022/10/28 05:04:09;;;;;;;10.77;3.33;;;14.20;99.90;;;;;;6180458;28;20050;-84
2022/10/28 05:07:12;;;;;;;9.15;3.25;;;14.10;99.90;;;;;;6179959;28;20047;-83
2022/10/28 05:10:16;;;;;;;12.60;3.22;;;14.00;99.90;;;;;;6179129;28;20050;-83
2022/10/28 05:13:18;;;;;;;8.95;2.72;;;14.00;99.90;;;;;;6179674;28;20055;-83
2022/10/28 05:16:20;;;;;;;16.52;2.35;;;13.90;99.90;;;;;;6179875;28;20047;-83
2022/10/28 05:19:22;;;;;;;9.10;2.72;;;13.80;99.90;;;;;;6180045;28;20051;-83
2022/10/28 05:22:25;;;;;;;8.88;2.70;;;13.70;99.90;;;;;;6179808;28;20054;-83
2022/10/28 05:25:27;;;;;;;5.53;2.53;;;13.70;99.90;;;;;;6179911;28;20150;-83
2022/10/28 05:28:29;;;;;;;12.85;3.60;;;13.60;99.90;;;;;;6182400;28;20053;-83
2022/10/28 05:31:31;;;;;;;9.35;2.75;;;13.60;99.90;;;;;;6179842;28;20050;-83
2022/10/28 05:34:33;;;;;;;14.65;3.00;;;13.50;99.90;;;;;;6180515;28;20047;-82
2022/10/28 05:37:36;;;;;;;6.57;3.15;;;13.50;99.90;;;;;;6179023;28;20504;-83
2022/10/28 05:40:38;;;;;;;14.48;3.78;;;13.50;99.90;;;;;;6179071;28;20049;-83
2022/10/28 05:43:39;;;;;;;17.48;2.97;;;13.50;99.90;;;;;;6178527;28;20058;-83
2022/10/28 05:46:41;;;;;;;8.30;3.67;;;13.40;99.90;;;;;;6179104;28;20058;-83
2022/10/28 05:49:43;;;;;;;7.38;2.67;;;13.40;99.90;;;;;;6167195;28;20069;-83
2022/10/28 05:52:47;;;;;;;12.52;2.28;;;13.40;99.90;;;;;;6193954;28;20043;-83
2022/10/28 05:55:49;;;;;;;16.90;3.33;;;13.30;99.90;;;;;;6209010;28;20054;-83
2022/10/28 05:58:50;;;;;;;17.30;4.80;;;13.30;99.90;;;;;;6188029;28;20053;-83
2022/10/28 06:01:52;;;;;;;17.42;3.65;;;13.20;99.90;;;;;;6184372;28;20054;-83
2022/10/28 06:04:54;;;;;;;14.52;4.57;;;13.10;99.90;;;;;;6183042;28;20051;-83
2022/10/28 06:07:57;;;;;;;8.95;2.90;;;13.00;99.90;;;;;;6181565;28;20042;-83
2022/10/28 06:11:00;;;;;;;17.77;4.40;;;13.00;99.90;;;;;;6180651;28;20061;-83
2022/10/28 06:14:02;;;;;;;19.52;5.13;;;13.10;99.90;;;;;;6179187;28;20050;-82
2022/10/28 06:17:04;;;;;;;11.23;3.38;;;13.10;99.90;;;;;;6172519;28;20046;-83
2022/10/28 06:20:06;;;;;;;20.67;3.72;;;13.00;99.90;;;;;;6181153;28;20054;-82
2022/10/28 06:23:09;;;;;;;15.93;4.00;;;12.90;99.90;;;;;;6188810;28;20051;-83
2022/10/28 06:26:11;;;;;;;16.27;4.70;;;12.90;99.90;;;;;;6203111;28;20058;-82
2022/10/28 06:29:13;;;;;;;13.75;3.35;;;13.00;99.90;;;;;;6206549;28;20054;-83
2022/10/28 06:32:14;;;;;;;23.02;5.15;;;13.00;99.90;;;;;;6206960;28;20396;-83
2022/10/28 06:35:16;;;;;;;24.95;4.95;;;13.10;99.90;;;;;;6205825;28;20054;-83
2022/10/28 06:38:19;;;;;;;14.30;3.22;;;13.20;99.90;;;;;;6204368;28;20417;-82
2022/10/28 06:41:21;;;;;;;15.88;2.95;;;13.40;99.90;;;;;;6205431;28;20500;-82
2022/10/28 06:44:23;;;;;;;24.60;4.90;;;13.60;99.90;;;;;;6204153;28;20530;-83
2022/10/28 06:47:24;;;;;;;26.77;3.90;;;13.70;99.90;;;;;;6204172;28;20408;-82
2022/10/28 06:50:26;;;;;;;9.82;3.35;;;13.90;99.90;;;;;;6202118;28;20068;-82
2022/10/28 06:53:29;;;;;;;7.15;3.53;;;14.10;99.90;;;;;;6201873;28;20046;-82
2022/10/28 06:56:31;;;;;;;13.30;3.95;;;14.20;99.90;;;;;;6202494;28;20043;-82
2022/10/28 06:59:33;;;;;;;17.58;4.78;;;14.30;99.90;;;;;;6202373;28;20053;-82
2022/10/28 07:02:34;;;;;;;9.18;3.95;;;14.50;99.90;;;;;;6207485;28;20062;-82
2022/10/28 07:05:36;;;;;;;11.20;3.45;;;14.50;99.90;;;;;;6206648;28;20050;-83
2022/10/28 07:08:39;;;;;;;13.73;4.25;;;14.60;99.90;;;;;;6208190;28;20045;-82
2022/10/28 07:11:43;;;;;;;14.98;3.60;;;14.70;99.90;;;;;;6207966;28;20057;-82
2022/10/28 07:14:45;;;;;;;9.80;2.88;;;14.80;99.90;;;;;;6204856;28;20063;-82
2022/10/28 07:17:52;;;;;;;16.70;5.50;;;14.80;99.90;;;;;;6180758;28;20050;-82
2022/10/28 07:20:54;;;;;;;8.73;2.58;;;14.70;99.90;;;;;;6183435;28;20046;-82
2022/10/28 07:23:57;;;;;;;9.73;2.65;;;14.80;99.90;;;;;;6182630;28;20058;-82
2022/10/28 07:26:58;;;;;;;10.65;3.88;;;14.80;99.90;;;;;;6184071;28;20035;-82
2022/10/28 07:30:00;;;;;;;10.77;3.33;;;14.90;99.90;;;;;;6182743;28;20050;-82
2022/10/28 07:33:04;;;;;;;18.33;3.65;;;14.80;99.90;;;;;;6182750;28;20066;-82
2022/10/28 07:36:06;;;;;;;10.60;3.35;;;14.80;99.90;;;;;;6182472;28;20412;-82
2022/10/28 07:39:10;;;;;;;14.13;3.35;;;14.90;99.90;;;;;;6182374;28;20505;-82
2022/10/28 07:42:12;;;;;;;14.32;3.70;;;15.00;99.90;;;;;;6182476;28;20067;-82
2022/10/28 07:45:14;;;;;;;8.65;2.80;;;15.20;99.90;;;;;;6182136;28;20058;-81
2022/10/28 07:48:16;;;;;;;14.10;2.60;;;15.20;99.90;;;;;;6179902;28;20046;-81
2022/10/28 07:51:17;;;;;;;8.88;3.90;;;15.40;99.90;;;;;;6179905;28;20051;-82
2022/10/28 07:54:20;;;;;;;10.43;3.28;;;15.40;99.90;;;;;;6179824;28;20047;-82
2022/10/28 07:57:22;;;;;;;8.50;2.20;;;15.50;99.90;;;;;;6179356;28;20047;-81
2022/10/28 08:00:24;;;;;;;7.25;2.67;;;15.50;99.90;;;;;;6179971;28;20394;-82
2022/10/28 08:03:26;;;;;;;8.80;2.45;;;15.60;99.90;;;;;;6180550;28;20051;-82
2022/10/28 08:06:28;;;;;;;7.22;2.60;;;15.80;99.90;;;;;;6179819;28;20057;-82
2022/10/28 08:09:31;;;;;;;15.68;2.90;;;15.90;99.90;;;;;;6179712;28;20043;-82
2022/10/28 08:12:32;;;;;;;8.20;3.40;;;15.80;99.90;;;;;;6178822;28;20051;-82
2022/10/28 08:15:34;;;;;;;10.93;2.53;;;16.00;99.90;;;;;;6179183;28;20143;-82
2022/10/28 08:18:36;;;;;;;6.72;2.10;;;16.10;99.90;;;;;;6178381;28;20066;-82
2022/10/28 08:21:38;;;;;;;12.65;3.42;;;16.10;99.90;;;;;;6180110;28;20051;-82
2022/10/28 08:24:41;;;;;;;17.85;3.53;;;16.20;99.90;;;;;;6180212;28;20066;-82
2022/10/28 08:27:42;;;;;;;13.95;3.50;;;16.30;99.90;;;;;;6181679;28;20055;-82
2022/10/28 08:30:44;;;;;;;12.32;2.70;;;16.60;99.90;;;;;;6182337;28;20054;-81
2022/10/28 08:33:46;;;;;;;14.02;2.55;;;16.80;99.90;;;;;;6183373;28;20057;-82
2022/10/28 08:36:47;;;;;;;10.45;3.08;;;17.10;99.90;;;;;;6182808;28;20596;-82
2022/10/28 08:39:50;;;;;;;7.07;2.15;;;17.30;99.90;;;;;;6181605;28;20070;-82
2022/10/28 08:42:56;;;;;;;6.30;1.95;;;17.60;99.90;;;;;;6181607;28;20062;-82
2022/10/28 08:46:03;;;;;;;11.68;2.92;;;17.90;99.90;;;;;;6179948;28;20054;-82
2022/10/28 08:49:12;;;;;;;8.23;2.38;;;18.30;99.90;;;;;;6180970;28;20047;-83
2022/10/28 08:52:24;;;;;;;8.93;2.25;;;18.60;99.90;;;;;;6180262;28;20054;-82
2022/10/28 08:55:33;;;;;;;14.52;2.80;;;18.70;99.90;;;;;;6191195;28;20054;-82
2022/10/28 08:58:38;;;;;;;4.68;2.25;;;18.90;99.90;;;;;;6207577;28;20045;-83
2022/10/28 09:01:46;;;;;;;9.43;2.17;;;19.20;99.90;;;;;;6204482;28;20515;-83
2022/10/28 09:04:51;;;;;;;8.88;2.25;;;19.30;99.90;;;;;;6154947;28;20047;-82
2022/10/28 09:07:54;;;;;;;9.60;1.60;;;19.40;99.90;;;;;;6156491;28;20051;-83
2022/10/28 09:11:08;;;;;;;6.95;1.88;;;19.50;99.90;;;;;;6157319;28;20051;-83
2022/10/28 09:14:25;;;;;;;8.25;2.80;;;19.50;99.90;;;;;;6157199;28;20077;-82
2022/10/28 09:17:36;;;;;;;15.10;3.33;;;19.70;99.90;;;;;;6155676;28;20055;-82
2022/10/28 09:20:47;;;;;;;9.40;2.00;;;19.90;99.90;;;;;;6176927;28;20050;-82
2022/10/28 09:23:55;;;;;;;13.85;3.08;;;20.10;99.90;;;;;;6180451;28;20412;-84
2022/10/28 09:27:04;;;;;;;11.35;2.50;;;20.20;99.90;;;;;;6199811;28;20050;-83
2022/10/28 09:30:21;;;;;;;9.35;1.80;;;20.30;99.90;;;;;;6204503;28;20396;-83
2022/10/28 09:33:45;;;;;;;13.07;2.00;;;20.50;99.90;;;;;;6187995;28;20428;-82
2022/10/28 09:36:51;;;;;;;11.40;2.10;;;20.70;99.90;;;;;;6179436;28;20047;-83
2022/10/28 09:39:59;;;;;;;20.92;2.83;;;21.10;99.90;;;;;;6181087;28;20053;-83
2022/10/28 09:43:09;;;;;;;6.45;1.67;;;21.40;99.90;;;;;;6203079;28;20042;-82
2022/10/28 09:46:13;;;;;;;8.40;1.92;;;21.80;99.90;;;;;;6201954;28;20527;-84
2022/10/28 09:49:20;;;;;;;6.97;2.05;;;22.10;99.90;;;;;;6187706;28;20480;-83
2022/10/28 09:52:25;;;;;;;10.90;2.65;;;22.10;99.90;;;;;;6155978;28;20069;-81
2022/10/28 09:55:27;;;;;;;8.35;2.70;;;22.00;99.90;;;;;;6141524;28;20059;-83
2022/10/28 09:58:32;;;;;;;7.45;1.70;;;22.10;99.90;;;;;;6159988;28;20051;-82
2022/10/28 10:01:35;;;;;;;12.43;2.30;;;22.20;99.70;;;;;;6170781;28;20051;-84
2022/10/28 10:04:37;;;;;;;13.43;1.98;;;22.40;99.50;;;;;;6176851;28;20238;-83
2022/10/28 10:07:43;;;;;;;7.90;2.35;;;22.50;99.70;;;;;;6176864;28;20050;-82
2022/10/28 10:10:52;;;;;;;9.07;1.52;;;22.80;99.40;;;;;;6177961;28;20058;-83
2022/10/28 10:13:58;;;;;;;15.30;1.80;;;23.20;98.70;;;;;;6177137;28;20050;-82
2022/10/28 10:17:04;;;;;;;14.20;1.85;;;23.50;97.90;;;;;;6181838;28;20074;-82
2022/10/28 10:20:08;;;;;;;13.18;1.92;;;23.70;97.50;;;;;;6184371;28;20047;-82
2022/10/28 10:23:23;;;;;;;3.75;1.48;;;24.00;97.00;;;;;;6171242;28;20061;-83
2022/10/28 10:26:24;;;;;;;9.30;1.92;;;24.20;96.20;;;;;;6162855;28;20051;-83
2022/10/28 10:29:29;;;;;;;4.03;1.45;;;24.30;95.80;;;;;;6179807;28;20051;-84
2022/10/28 10:32:32;;;;;;;14.13;3.53;;;24.30;95.50;;;;;;6181878;28;20480;-84
2022/10/28 10:35:36;;;;;;;11.07;1.35;;;24.30;95.10;;;;;;6180614;28;20069;-84
2022/10/28 10:38:46;;;;;;;15.25;1.95;;;24.20;95.00;;;;;;6181324;28;20126;-83
2022/10/28 10:41:48;;;;;;;14.00;2.53;;;24.20;94.90;;;;;;6178285;28;20078;-82
2022/10/28 10:44:59;;;;;;;11.90;1.58;;;24.30;94.80;;;;;;6174586;28;20066;-83
2022/10/28 10:48:13;;;;;;;12.10;1.70;;;24.30;94.60;;;;;;6174368;28;20043;-83
2022/10/28 10:51:21;;;;;;;11.88;2.03;;;24.30;94.50;;;;;;6175259;28;20047;-84
2022/10/28 10:54:24;;;;;;;13.07;1.95;;;24.40;94.40;;;;;;6162290;28;20062;-83
2022/10/28 10:57:27;;;;;;;8.00;1.45;;;24.60;94.20;;;;;;6182359;28;20046;-82
2022/10/28 11:00:33;;;;;;;5.10;1.33;;;24.80;93.90;;;;;;6198709;28;20046;-82
2022/10/28 11:03:38;;;;;;;6.07;1.75;;;25.00;93.40;;;;;;6198206;28;20069;-83
2022/10/28 11:06:43;;;;;;;9.63;2.00;;;25.50;93.00;;;;;;6200306;28;20536;-84
2022/10/28 11:09:49;;;;;;;18.98;2.10;;;25.90;92.20;;;;;;6201988;28;20047;-84
2022/10/28 11:12:52;;;;;;;8.77;1.55;;;26.30;91.50;;;;;;6181164;28;20050;-85
2022/10/28 11:16:01;;;;;;;6.68;2.20;;;26.80;90.70;;;;;;6179539;28;20046;-84
2022/10/28 11:19:19;;;;;;;9.75;1.50;;;27.30;89.60;;;;;;6181882;28;20058;-84
2022/10/28 11:22:32;;;;;;;7.57;1.60;;;27.70;87.70;;;;;;6178977;28;20050;-85
2022/10/28 11:25:36;;;;;;;8.13;1.27;;;28.20;85.60;;;;;;6189393;28;20043;-83
2022/10/28 11:28:50;;;;;;;12.10;2.22;;;28.60;82.80;;;;;;6201894;28;20050;-84
2022/10/28 11:32:12;;;;;;;4.03;2.20;;;28.90;80.50;;;;;;6207074;28;20053;-83
2022/10/28 11:35:29;;;;;;;6.60;1.73;;;28.90;79.20;;;;;;6209517;28;20498;-84
2022/10/28 11:38:42;;;;;;;5.80;1.40;;;28.80;78.30;;;;;;6210254;28;20054;-83
2022/10/28 11:42:05;;;;;;;11.50;2.78;;;28.70;77.70;;;;;;6208384;28;20050;-84
2022/10/28 11:45:22;;;;;;;12.05;2.10;;;28.60;77.10;;;;;;6207562;28;20496;-84
2022/10/28 11:48:46;;;;;;;8.27;1.73;;;28.40;76.50;;;;;;6212858;28;20189;-84
2022/10/28 11:51:55;;;;;;;11.32;2.42;;;28.30;76.60;;;;;;6212272;28;20313;-83
2022/10/28 11:55:06;;;;;;;14.30;2.17;;;28.40;76.10;;;;;;6206512;28;20053;-84
2022/10/28 11:58:19;;;;;;;11.32;1.60;;;28.50;75.60;;;;;;6203381;28;20435;-83
2022/10/28 12:01:32;;;;;;;9.80;1.63;;;28.80;74.90;;;;;;6209481;28;20050;-83
2022/10/28 12:04:50;;;;;;;8.23;1.92;;;29.10;74.30;;;;;;6203017;28;20659;-83
2022/10/28 12:08:12;;;;;;;15.48;1.80;;;29.40;73.40;;;;;;6202640;28;20049;-84
2022/10/28 12:11:27;;;;;;;5.88;1.33;;;29.70;72.30;;;;;;6202397;28;20065;-84
2022/10/28 12:14:38;;;;;;;10.30;1.90;;;30.10;70.80;;;;;;6201174;28;20782;-83
2022/10/28 12:17:47;;;;;;;12.40;1.92;;;30.30;69.50;;;;;;6200889;28;20435;-84
2022/10/28 12:20:57;;;;;;;13.18;1.90;;;30.50;68.40;;;;;;6189872;28;20042;-83
2022/10/28 12:23:59;;;;;;;9.38;1.35;;;30.80;67.10;;;;;;6179132;28;20046;-84
2022/10/28 12:27:06;;;;;;;10.90;1.98;;;31.00;66.00;;;;;;6196301;28;20046;-83
2022/10/28 12:30:19;;;;;;;11.65;3.15;;;31.10;65.10;;;;;;6206001;28;20493;-84
2022/10/28 12:33:26;;;;;;;11.85;1.58;;;31.30;64.60;;;;;;6206713;28;20050;-84
2022/10/28 12:36:34;;;;;;;5.88;1.65;;;31.60;63.70;;;;;;6208354;28;20062;-84
2022/10/28 12:39:44;;;;;;;11.35;1.60;;;31.90;62.90;;;;;;6204936;28;20042;-85
2022/10/28 12:42:50;;;;;;;12.82;2.40;;;32.10;61.50;;;;;;6203498;28;20057;-83
2022/10/28 12:45:55;;;;;;;4.97;1.58;;;32.20;61.50;;;;;;6203786;28;20057;-84
2022/10/28 12:49:03;;;;;;;13.50;2.13;;;32.30;61.30;;;;;;6198875;28;20408;-84
2022/10/28 12:52:16;;;;;;;12.00;1.70;;;32.60;60.60;;;;;;6182566;28;20421;-84
2022/10/28 12:55:25;;;;;;;9.18;2.85;;;32.80;59.90;;;;;;6192013;28;20046;-84
2022/10/28 12:58:32;;;;;;;9.60;3.25;;;33.00;59.40;;;;;;6192737;28;20049;-84
2022/10/28 13:01:35;;;;;;;9.45;2.05;;;33.20;59.00;;;;;;6206884;28;20623;-83
2022/10/28 13:04:37;;;;;;;8.55;1.83;;;33.30;58.20;;;;;;6203625;28;20045;-83
2022/10/28 13:07:54;;;;;;;10.27;2.25;;;33.40;58.10;;;;;;6208904;28;20046;-83
2022/10/28 13:11:03;;;;;;;7.18;1.58;;;33.40;57.50;;;;;;6204991;28;20054;-83
2022/10/28 13:14:13;;;;;;;7.47;2.28;;;33.50;57.30;;;;;;6207072;28;20046;-83
2022/10/28 13:17:27;;;;;;;12.23;2.10;;;33.40;56.90;;;;;;6207122;28;20061;-83
2022/10/28 13:20:43;;;;;;;11.23;1.80;;;33.40;57.10;;;;;;6207318;28;20094;-83
2022/10/28 13:23:54;;;;;;;8.50;1.52;;;33.20;56.90;;;;;;6183269;28;20055;-83
2022/10/28 13:26:56;;;;;;;11.82;1.70;;;32.90;56.80;;;;;;6195053;28;20062;-84
2022/10/28 13:30:01;;;;;;;9.55;2.03;;;32.40;57.30;;;;;;6209693;28;20054;-84
2022/10/28 13:33:06;;;;;;;12.60;1.70;;;31.90;57.80;;;;;;6209552;28;20069;-83
2022/10/28 13:36:15;;;;;;;18.67;2.28;;;31.60;58.40;;;;;;6209287;28;20042;-83
2022/10/28 13:39:40;;;;;;;11.73;2.38;;;31.00;58.90;;;;;;6210412;28;20054;-83
2022/10/28 13:42:50;;;;;;;9.95;2.28;;;30.50;59.80;;;;;;6210214;28;20077;-83
2022/10/28 13:45:53;;;;;;;12.25;3.85;;;30.10;60.50;;;;;;6206161;28;20061;-83
2022/10/28 13:49:22;;;;;;;5.57;1.20;;;29.90;61.20;;;;;;6203996;28;20278;-82
2022/10/28 13:52:24;;;;;;;13.53;1.97;;;29.70;61.60;;;;;;6203603;28;20053;-82
2022/10/28 13:55:41;;;;;;;9.75;1.55;;;29.60;62.00;;;;;;6188708;28;20062;-83
2022/10/28 13:58:51;;;;;;;10.25;2.22;;;29.50;61.90;;;;;;6184988;28;20050;-84
2022/10/28 14:01:55;;;;;;;13.77;1.80;;;29.40;62.20;;;;;;6179646;28;20416;-83
2022/10/28 14:04:59;;;;;;;6.63;1.42;;;29.20;62.80;;;;;;6182333;28;20057;-84
2022/10/28 14:08:04;;;;;;;14.00;2.10;;;29.10;63.70;;;;;;6182436;28;20047;-84
2022/10/28 14:11:11;;;;;;;9.23;1.98;;;29.00;63.40;;;;;;6181832;28;20066;-84
2022/10/28 14:14:16;;;;;;;10.98;2.75;;;29.00;63.50;;;;;;6182132;28;20055;-84
2022/10/28 14:17:24;;;;;;;7.95;2.20;;;28.90;64.00;;;;;;6181444;28;20058;-83
2022/10/28 14:20:33;;;;;;;10.85;3.10;;;28.80;64.20;;;;;;6182058;28;20050;-83
2022/10/28 14:24:09;;;;;;;11.30;2.10;;;28.80;64.60;;;;;;6173843;28;20051;-83
2022/10/28 14:27:39;;;;;;;10.82;1.50;;;28.70;65.00;;;;;;6190202;28;20393;-83
2022/10/28 14:31:24;;;;;;;13.05;1.77;;;28.70;65.60;;;;;;6199703;28;20050;-84
2022/10/28 14:34:39;;;;;;;8.45;1.95;;;28.60;65.60;;;;;;6190374;28;20057;-83
2022/10/28 14:38:12;;;;;;;9.50;1.48;;;28.60;66.70;;;;;;6198893;28;20046;-84
2022/10/28 14:41:42;;;;;;;6.88;1.80;;;28.50;67.30;;;;;;6185493;28;20054;-83
2022/10/28 14:45:01;;;;;;;18.27;1.92;;;28.40;67.80;;;;;;6183459;28;20069;-83
2022/10/28 14:48:20;;;;;;;13.57;1.65;;;28.40;68.10;;;;;;6190834;28;20046;-85
2022/10/28 14:51:25;;;;;;;24.08;2.50;;;28.50;68.90;;;;;;6184771;28;20043;-85
2022/10/28 14:54:36;;;;;;;8.63;1.75;;;28.50;69.30;;;;;;6174062;28;20043;-84
2022/10/28 14:57:38;;;;;;;9.48;2.50;;;28.40;69.80;;;;;;6182956;28;20046;-84
2022/10/28 15:00:54;;;;;;;9.50;1.90;;;28.40;70.10;;;;;;6180503;28;20054;-84
2022/10/28 15:04:02;;;;;;;14.60;3.17;;;28.30;70.30;;;;;;6178979;28;20047;-84
2022/10/28 15:07:05;;;;;;;4.68;1.50;;;28.30;70.90;;;;;;6177436;28;20190;-84
2022/10/28 15:10:15;;;;;;;12.82;1.42;;;28.20;70.90;;;;;;6176130;28;20043;-84
2022/10/28 15:13:26;;;;;;;11.50;2.90;;;28.20;71.60;;;;;;6177118;28;20416;-83
2022/10/28 15:16:29;;;;;;;15.13;2.75;;;28.00;72.00;;;;;;6182306;28;20421;-83
2022/10/28 15:19:34;;;;;;;10.73;2.65;;;27.70;72.70;;;;;;6175060;28;20420;-84
2022/10/28 15:22:36;;;;;;;14.43;2.17;;;27.40;73.30;;;;;;6178327;28;20061;-84
2022/10/28 15:25:40;;;;;;;9.80;2.05;;;27.10;74.00;;;;;;6182719;28;20051;-83
2022/10/28 15:28:43;;;;;;;9.57;2.38;;;26.60;74.90;;;;;;6183588;28;20113;-83
2022/10/28 15:35:39;;;;;;;12.35;2.65;;;25.90;77.10;;;;;;6178734;28;20205;-83
2022/10/28 15:38:43;;;;;;;9.20;2.33;;;25.60;77.90;;;;;;6179049;28;20062;-83
2022/10/28 15:41:51;;;;;;;9.02;2.40;;;25.30;78.50;;;;;;6185092;28;20528;-86
2022/10/28 15:44:57;;;;;;;8.82;2.33;;;25.00;79.70;;;;;;6202395;28;20185;-83
2022/10/28 15:48:09;;;;;;;18.35;3.78;;;24.70;80.50;;;;;;6202134;28;20046;-84
2022/10/28 15:51:13;;;;;;;12.07;2.30;;;24.30;81.60;;;;;;6202327;28;20523;-83
2022/10/28 15:54:20;;;;;;;8.10;2.20;;;24.00;82.40;;;;;;6196983;28;20485;-84
2022/10/28 15:57:25;;;;;;;16.83;2.47;;;23.70;83.80;;;;;;6184312;28;20049;-83
2022/10/28 16:01:07;;;;;;;14.68;3.55;;;23.40;84.60;;;;;;6172429;28;20509;-84
2022/10/28 16:04:42;;;;;;;9.10;2.78;;;23.10;85.80;;;;;;6177413;28;20109;-83
2022/10/28 16:07:50;;;;;;;11.00;3.05;;;22.80;86.60;;;;;;6174459;28;20051;-83